createdAt,value
2018-08-04T00:00:40.734Z,50.41
2018-08-04T00:01:40.728Z,50.21
2018-08-04T00:02:40.728Z,50.60
2018-08-04T00:03:40.730Z,50.41
2018-08-04T00:04:40.730Z,50.57
2018-08-04T00:05:40.735Z,51.25
2018-08-04T00:06:40.732Z,50.77
2018-08-04T00:07:40.736Z,50.67
2018-08-04T00:08:40.738Z,50.96
2018-08-04T00:09:40.736Z,51.16
2018-08-04T00:10:40.741Z,51.35
2018-08-04T00:11:40.740Z,51.25
2018-08-04T00:12:40.743Z,51.16
2018-08-04T00:13:40.737Z,51.35
2018-08-04T00:14:40.745Z,50.87
2018-08-04T00:15:40.743Z,51.16
2018-08-04T00:16:40.737Z,50.77
2018-08-04T00:17:40.738Z,51.16
2018-08-04T00:18:40.746Z,50.67
2018-08-04T00:19:40.740Z,51.35
2018-08-04T00:20:40.740Z,50.96
2018-08-04T00:21:40.745Z,51.32
2018-08-04T00:22:40.744Z,51.06
2018-08-04T00:23:40.742Z,51.35
2018-08-04T00:24:40.749Z,50.38
2018-08-04T00:25:40.746Z,51.13
2018-08-04T00:26:40.742Z,51.16
2018-08-04T00:27:40.753Z,51.13
2018-08-04T00:28:40.744Z,51.16
2018-08-04T00:29:40.741Z,51.25
2018-08-04T00:30:40.749Z,51.23
2018-08-04T00:31:40.746Z,50.74
2018-08-04T00:32:40.744Z,51.23
2018-08-04T00:33:40.744Z,50.94
2018-08-04T00:34:40.742Z,50.65
2018-08-04T00:35:40.761Z,51.52
2018-08-04T00:36:40.745Z,51.62
2018-08-04T00:37:40.747Z,51.42
2018-08-04T00:38:40.741Z,51.72
2018-08-04T00:39:40.758Z,52.39
2018-08-04T00:40:40.753Z,52.58
2018-08-04T00:41:40.749Z,52.49
2018-08-04T00:42:40.747Z,52.49
2018-08-04T00:43:40.753Z,52.49
2018-08-04T00:44:40.751Z,52.39
2018-08-04T00:45:40.752Z,52.20
2018-08-04T00:46:40.748Z,52.49
2018-08-04T00:47:40.750Z,52.20
2018-08-04T00:48:40.750Z,52.68
2018-08-04T00:49:40.749Z,52.08
2018-08-04T00:50:40.748Z,52.29
2018-08-04T00:51:40.749Z,52.39
2018-08-04T00:52:40.749Z,52.56
2018-08-04T00:53:40.751Z,52.17
2018-08-04T00:54:40.756Z,52.75
2018-08-04T00:55:40.761Z,52.85
2018-08-04T00:56:40.750Z,53.04
2018-08-04T00:57:40.754Z,53.23
2018-08-04T00:58:40.751Z,53.23
2018-08-04T00:59:40.755Z,53.43
2018-08-04T01:00:40.749Z,53.81
2018-08-04T01:01:40.751Z,53.11
2018-08-04T01:02:40.752Z,53.53
2018-08-04T01:03:40.756Z,53.23
2018-08-04T01:04:40.744Z,53.50
2018-08-04T01:05:40.748Z,53.79
2018-08-04T01:06:40.749Z,53.89
2018-08-04T01:07:40.749Z,54.27
2018-08-04T01:08:40.747Z,53.79
2018-08-04T01:09:40.752Z,53.81
2018-08-04T01:10:40.753Z,53.91
2018-08-04T01:11:40.762Z,53.43
2018-08-04T01:12:40.753Z,53.04
2018-08-04T01:13:40.753Z,53.91
2018-08-04T01:14:40.749Z,53.23
2018-08-04T01:15:40.755Z,53.14
2018-08-04T01:16:40.753Z,53.53
2018-08-04T01:17:40.755Z,53.43
2018-08-04T01:18:40.751Z,53.14
2018-08-04T01:19:40.754Z,53.53
2018-08-04T01:20:40.747Z,53.14
2018-08-04T01:21:40.748Z,53.91
2018-08-04T01:22:40.751Z,53.99
2018-08-04T01:23:40.750Z,54.27
2018-08-04T01:24:40.763Z,54.27
2018-08-04T01:25:40.749Z,53.79
2018-08-04T01:26:40.752Z,54.27
2018-08-04T01:27:40.752Z,54.75
2018-08-04T01:28:40.753Z,54.57
2018-08-04T01:29:40.749Z,54.66
2018-08-04T01:30:40.756Z,54.66
2018-08-04T01:31:40.752Z,54.66
2018-08-04T01:32:40.752Z,54.49
2018-08-04T01:33:40.754Z,54.66
2018-08-04T01:34:40.754Z,54.85
2018-08-04T01:35:40.751Z,54.66
2018-08-04T01:36:40.757Z,54.85
2018-08-04T01:37:40.752Z,54.95
2018-08-04T01:38:40.750Z,55.15
2018-08-04T01:39:40.751Z,54.95
2018-08-04T01:40:40.757Z,55.43
2018-08-04T01:41:40.754Z,56.02
2018-08-04T01:42:40.752Z,56.11
2018-08-04T01:43:40.759Z,56.40
2018-08-04T01:44:40.755Z,56.30
2018-08-04T01:45:40.755Z,56.21
2018-08-04T01:46:40.748Z,55.92
2018-08-04T01:47:40.753Z,55.63
2018-08-04T01:48:40.751Z,55.73
2018-08-04T01:49:40.751Z,55.63
2018-08-04T01:50:40.751Z,55.82
2018-08-04T01:51:40.749Z,56.60
2018-08-04T01:52:40.755Z,56.11
2018-08-04T01:53:40.774Z,56.95
2018-08-04T01:54:40.747Z,56.95
2018-08-04T01:55:40.753Z,56.67
2018-08-04T01:56:40.754Z,56.95
2018-08-04T01:57:40.750Z,57.73
2018-08-04T01:58:40.751Z,57.24
2018-08-04T01:59:40.751Z,57.54
2018-08-04T02:00:40.760Z,57.63
2018-08-04T02:01:40.751Z,57.63
2018-08-04T02:02:40.750Z,58.18
2018-08-04T02:03:40.753Z,57.34
2018-08-04T02:04:40.751Z,58.31
2018-08-04T02:05:40.745Z,57.92
2018-08-04T02:06:40.747Z,57.41
2018-08-04T02:07:40.749Z,57.92
2018-08-04T02:08:40.748Z,58.31
2018-08-04T02:09:40.752Z,58.60
2018-08-04T02:10:40.748Z,58.37
2018-08-04T02:11:40.774Z,58.47
2018-08-04T02:12:40.749Z,58.67
2018-08-04T02:13:40.748Z,58.67
2018-08-04T02:14:40.744Z,59.25
2018-08-04T02:15:40.752Z,59.25
2018-08-04T02:16:40.747Z,59.15
2018-08-04T02:17:40.745Z,59.25
2018-08-04T02:18:40.748Z,59.63
2018-08-04T02:19:40.747Z,59.05
2018-08-04T02:20:40.745Z,59.53
2018-08-04T02:21:40.740Z,59.25
2018-08-04T02:22:40.741Z,59.25
2018-08-04T02:23:40.741Z,59.53
2018-08-04T02:24:40.745Z,59.34
2018-08-04T02:25:40.758Z,59.63
2018-08-04T02:26:40.742Z,60.21
2018-08-04T02:27:40.741Z,59.83
2018-08-04T02:28:40.742Z,60.38
2018-08-04T02:29:40.744Z,61.05
2018-08-04T02:30:40.743Z,60.76
2018-08-04T02:31:40.742Z,60.96
2018-08-04T02:32:40.745Z,60.76
2018-08-04T02:33:40.742Z,61.25
2018-08-04T02:34:40.741Z,60.86
2018-08-04T02:35:40.739Z,61.05
2018-08-04T02:36:40.744Z,60.09
2018-08-04T02:37:40.740Z,60.38
2018-08-04T02:38:40.741Z,60.47
2018-08-04T02:39:40.742Z,61.08
2018-08-04T02:40:40.750Z,60.41
2018-08-04T02:41:40.754Z,61.08
2018-08-04T02:42:40.748Z,60.99
2018-08-04T02:43:40.745Z,61.05
2018-08-04T02:44:40.749Z,61.15
2018-08-04T02:45:40.765Z,61.05
2018-08-04T02:46:40.743Z,61.73
2018-08-04T02:47:40.740Z,61.73
2018-08-04T02:48:40.737Z,62.21
2018-08-04T02:49:40.737Z,62.02
2018-08-04T02:50:40.735Z,61.92
2018-08-04T02:51:40.735Z,61.63
2018-08-04T02:52:40.732Z,62.12
2018-08-04T02:53:40.731Z,62.02
2018-08-04T02:54:40.730Z,62.40
2018-08-04T02:55:40.755Z,62.02
2018-08-04T02:56:40.782Z,61.83
2018-08-04T02:57:40.733Z,62.21
2018-08-04T02:58:40.747Z,61.44
2018-08-04T02:59:40.754Z,62.12
2018-08-04T03:00:40.732Z,61.92
2018-08-04T03:01:40.734Z,62.50
2018-08-04T03:02:40.739Z,62.40
2018-08-04T03:03:40.731Z,62.86
2018-08-04T03:04:40.726Z,62.95
2018-08-04T03:05:40.736Z,62.76
2018-08-04T03:06:40.723Z,63.73
2018-08-04T03:07:40.734Z,62.95
2018-08-04T03:09:40.744Z,62.98
2018-08-04T03:10:40.729Z,63.18
2018-08-04T03:11:40.732Z,63.08
2018-08-04T03:12:40.727Z,63.08
2018-08-04T03:13:40.727Z,62.76
2018-08-04T03:14:40.725Z,62.18
2018-08-04T03:15:40.728Z,62.40
2018-08-04T03:16:40.727Z,63.43
2018-08-04T03:17:40.724Z,63.47
2018-08-04T03:18:40.723Z,63.34
2018-08-04T03:19:40.722Z,64.21
2018-08-04T03:20:40.722Z,63.63
2018-08-04T03:21:40.719Z,63.63
2018-08-04T03:22:40.720Z,63.43
2018-08-04T03:23:40.732Z,64.31
2018-08-04T03:24:40.719Z,64.69
2018-08-04T03:25:40.720Z,64.40
2018-08-04T03:26:40.722Z,64.98
2018-08-04T03:27:40.719Z,64.69
2018-08-04T03:28:40.719Z,64.98
2018-08-04T03:29:40.716Z,65.05
2018-08-04T03:30:40.714Z,65.53
2018-08-04T03:31:40.718Z,65.34
2018-08-04T03:32:40.708Z,65.24
2018-08-04T03:33:40.713Z,65.72
2018-08-04T03:34:40.713Z,65.34
2018-08-04T03:35:40.725Z,65.82
2018-08-04T03:36:40.719Z,66.30
2018-08-04T03:37:40.714Z,65.82
2018-08-04T03:38:40.712Z,66.40
2018-08-04T03:39:40.712Z,65.82
2018-08-04T03:40:40.709Z,66.40
2018-08-04T03:41:40.719Z,66.49
2018-08-04T03:42:40.704Z,66.69
2018-08-04T03:43:40.714Z,65.72
2018-08-04T03:44:40.710Z,66.11
2018-08-04T03:45:40.706Z,66.63
2018-08-04T03:46:40.703Z,66.59
2018-08-04T03:47:40.709Z,65.63
2018-08-04T03:48:40.714Z,66.40
2018-08-04T03:49:40.712Z,66.40
2018-08-04T03:50:40.705Z,66.69
2018-08-04T03:51:40.717Z,66.01
2018-08-04T03:52:40.700Z,66.59
2018-08-04T03:53:40.703Z,65.72
2018-08-04T03:54:40.702Z,66.69
2018-08-04T03:55:40.702Z,66.69
2018-08-04T03:56:40.702Z,67.27
2018-08-04T03:57:40.703Z,67.46
2018-08-04T03:58:40.707Z,67.55
2018-08-04T03:59:40.729Z,67.65
2018-08-04T04:00:40.700Z,68.04
2018-08-04T04:01:40.693Z,67.55
2018-08-04T04:02:40.696Z,67.55
2018-08-04T04:03:40.693Z,67.55
2018-08-04T04:04:40.703Z,68.43
2018-08-04T04:05:40.694Z,68.43
2018-08-04T04:06:40.715Z,68.13
2018-08-04T04:07:40.694Z,67.85
2018-08-04T04:08:40.694Z,69.00
2018-08-04T04:09:40.687Z,68.62
2018-08-04T04:10:40.692Z,68.81
2018-08-04T04:11:40.687Z,68.13
2018-08-04T04:12:40.683Z,68.29
2018-08-04T04:13:40.687Z,68.91
2018-08-04T04:14:40.687Z,69.29
2018-08-04T04:15:40.691Z,68.97
2018-08-04T04:16:40.697Z,68.43
2018-08-04T04:17:40.684Z,68.39
2018-08-04T04:18:40.697Z,69.00
2018-08-04T04:19:40.705Z,69.29
2018-08-04T04:20:40.684Z,69.39
2018-08-04T04:21:40.683Z,69.49
2018-08-04T04:22:40.684Z,69.00
2018-08-04T04:23:40.684Z,68.62
2018-08-04T04:24:40.684Z,69.00
2018-08-04T04:25:40.681Z,68.13
2018-08-04T04:26:40.686Z,68.13
2018-08-04T04:27:40.678Z,68.33
2018-08-04T04:28:40.679Z,67.59
2018-08-04T04:29:40.679Z,67.11
2018-08-04T04:30:40.680Z,66.82
2018-08-04T04:31:40.684Z,66.75
2018-08-04T04:32:40.687Z,66.53
2018-08-04T04:33:40.683Z,66.27
2018-08-04T04:34:40.677Z,66.17
2018-08-04T04:35:40.677Z,66.08
2018-08-04T04:36:40.675Z,66.17
2018-08-04T04:37:40.677Z,65.59
2018-08-04T04:38:40.675Z,65.40
2018-08-04T04:39:40.677Z,65.30
2018-08-04T04:40:40.674Z,65.78
2018-08-04T04:41:40.669Z,65.20
2018-08-04T04:42:40.673Z,65.40
2018-08-04T04:43:40.672Z,65.69
2018-08-04T04:44:40.674Z,65.30
2018-08-04T04:45:40.669Z,65.30
2018-08-04T04:46:40.676Z,64.72
2018-08-04T04:47:40.671Z,64.43
2018-08-04T04:48:40.672Z,65.20
2018-08-04T04:49:40.671Z,65.40
2018-08-04T04:50:40.677Z,64.72
2018-08-04T04:51:40.670Z,65.20
2018-08-04T04:52:40.667Z,65.88
2018-08-04T04:53:40.670Z,65.98
2018-08-04T04:54:40.668Z,65.20
2018-08-04T04:55:40.666Z,65.98
2018-08-04T04:56:40.666Z,66.27
2018-08-04T04:57:40.668Z,66.36
2018-08-04T04:58:40.670Z,66.56
2018-08-04T04:59:40.672Z,66.75
2018-08-04T05:00:40.679Z,67.43
2018-08-04T05:01:40.667Z,67.11
2018-08-04T05:02:40.695Z,67.33
2018-08-04T05:03:40.696Z,68.17
2018-08-04T05:04:40.663Z,67.82
2018-08-04T05:05:40.665Z,68.20
2018-08-04T05:06:40.665Z,67.88
2018-08-04T05:07:40.665Z,68.17
2018-08-04T05:08:40.670Z,68.55
2018-08-04T05:09:40.665Z,69.04
2018-08-04T05:10:40.660Z,69.42
2018-08-04T05:11:40.665Z,68.84
2018-08-04T05:12:40.664Z,70.00
2018-08-04T05:13:40.664Z,69.32
2018-08-04T05:14:40.665Z,69.32
2018-08-04T05:15:40.685Z,69.32
2018-08-04T05:16:40.670Z,69.52
2018-08-04T05:17:40.663Z,70.20
2018-08-04T05:18:40.662Z,70.39
2018-08-04T05:19:40.663Z,70.20
2018-08-04T05:20:40.664Z,70.00
2018-08-04T05:21:40.785Z,70.20
2018-08-04T05:22:40.662Z,70.29
2018-08-04T05:23:40.665Z,69.52
2018-08-04T05:24:40.658Z,70.20
2018-08-04T05:25:40.660Z,70.20
2018-08-04T05:26:40.662Z,70.39
2018-08-04T05:27:40.659Z,70.48
2018-08-04T05:28:40.666Z,70.39
2018-08-04T05:29:40.663Z,70.29
2018-08-04T05:30:40.664Z,70.04
2018-08-04T05:31:40.663Z,70.14
2018-08-04T05:32:40.659Z,69.84
2018-08-04T05:33:40.657Z,70.23
2018-08-04T05:34:40.663Z,69.36
2018-08-04T05:35:40.662Z,68.20
2018-08-04T05:36:40.662Z,69.17
2018-08-04T05:37:40.661Z,68.10
2018-08-04T05:38:40.667Z,68.04
2018-08-04T05:39:40.660Z,68.33
2018-08-04T05:40:40.666Z,68.24
2018-08-04T05:41:40.662Z,68.52
2018-08-04T05:42:40.675Z,68.91
2018-08-04T05:43:40.662Z,68.24
2018-08-04T05:44:40.656Z,68.62
2018-08-04T05:45:40.660Z,68.43
2018-08-04T05:46:40.660Z,69.49
2018-08-04T05:47:40.662Z,70.04
2018-08-04T05:48:40.659Z,69.36
2018-08-04T05:49:40.668Z,69.56
2018-08-04T05:50:40.661Z,69.36
2018-08-04T05:51:40.663Z,69.94
2018-08-04T05:52:40.672Z,69.46
2018-08-04T05:53:40.666Z,69.56
2018-08-04T05:54:40.662Z,70.04
2018-08-04T05:55:40.660Z,69.26
2018-08-04T05:56:40.657Z,69.94
2018-08-04T05:57:40.664Z,70.46
2018-08-04T05:58:40.660Z,69.88
2018-08-04T05:59:40.661Z,70.04
2018-08-04T06:00:40.681Z,70.23
2018-08-04T06:01:40.662Z,70.32
2018-08-04T06:02:40.661Z,70.17
2018-08-04T06:03:40.674Z,70.52
2018-08-04T06:04:40.665Z,70.52
2018-08-04T06:05:40.664Z,71.00
2018-08-04T06:06:40.671Z,71.39
2018-08-04T06:07:40.665Z,71.39
2018-08-04T06:08:40.665Z,71.39
2018-08-04T06:09:40.664Z,71.39
2018-08-04T06:10:40.665Z,71.88
2018-08-04T06:11:40.665Z,71.58
2018-08-04T06:12:40.666Z,71.58
2018-08-04T06:13:40.665Z,71.48
2018-08-04T06:14:40.674Z,71.58
2018-08-04T06:15:40.673Z,70.81
2018-08-04T06:16:40.682Z,71.39
2018-08-04T06:17:40.670Z,71.68
2018-08-04T06:18:40.669Z,71.68
2018-08-04T06:19:40.669Z,71.48
2018-08-04T06:20:40.668Z,71.72
2018-08-04T06:21:40.672Z,70.94
2018-08-04T06:22:40.673Z,70.56
2018-08-04T06:23:40.672Z,69.92
2018-08-04T06:24:40.671Z,69.82
2018-08-04T06:25:40.675Z,69.56
2018-08-04T06:26:40.675Z,69.27
2018-08-04T06:27:40.671Z,69.08
2018-08-04T06:28:40.685Z,69.17
2018-08-04T06:29:40.674Z,69.56
2018-08-04T06:30:40.741Z,69.17
2018-08-04T06:31:40.677Z,68.40
2018-08-04T06:32:40.695Z,68.30
2018-08-04T06:33:40.680Z,67.14
2018-08-04T06:34:40.682Z,67.46
2018-08-04T06:35:40.691Z,66.98
2018-08-04T06:36:40.710Z,66.82
2018-08-04T06:37:40.689Z,67.02
2018-08-04T06:38:40.689Z,66.82
2018-08-04T06:39:40.693Z,65.37
2018-08-04T06:40:40.690Z,65.85
2018-08-04T06:41:40.726Z,65.69
2018-08-04T06:42:40.696Z,64.53
2018-08-04T06:43:40.697Z,63.85
2018-08-04T06:44:40.697Z,63.88
2018-08-04T06:45:40.696Z,62.82
2018-08-04T06:46:40.707Z,63.69
2018-08-04T06:47:40.701Z,63.49
2018-08-04T06:48:40.718Z,63.30
2018-08-04T06:49:40.705Z,63.20
2018-08-04T06:50:40.711Z,63.49
2018-08-04T06:51:40.724Z,63.69
2018-08-04T06:52:40.717Z,63.88
2018-08-04T06:53:40.735Z,63.49
2018-08-04T06:54:40.724Z,63.40
2018-08-04T06:55:40.743Z,63.20
2018-08-04T06:56:40.736Z,62.72
2018-08-04T06:57:40.745Z,63.20
2018-08-04T06:58:40.737Z,63.20
2018-08-04T06:59:40.742Z,62.91
2018-08-04T07:00:40.749Z,62.82
2018-08-04T07:01:40.746Z,63.88
2018-08-04T07:02:40.753Z,63.40
2018-08-04T07:03:40.759Z,62.13
2018-08-04T07:04:40.752Z,63.30
2018-08-04T07:05:40.756Z,63.69
2018-08-04T07:06:40.759Z,63.59
2018-08-04T07:07:40.763Z,62.91
2018-08-04T07:08:40.766Z,63.40
2018-08-04T07:09:40.777Z,62.23
2018-08-04T07:10:40.771Z,62.72
2018-08-04T07:11:40.773Z,62.36
2018-08-04T07:12:40.777Z,61.58
2018-08-04T07:13:40.792Z,62.36
2018-08-04T07:14:40.781Z,61.88
2018-08-04T07:15:40.790Z,61.49
2018-08-04T07:16:40.787Z,60.55
2018-08-04T07:17:40.792Z,60.35
2018-08-04T07:18:40.795Z,60.74
2018-08-04T07:19:40.802Z,60.16
2018-08-04T07:20:40.801Z,59.41
2018-08-04T07:21:40.805Z,58.93
2018-08-04T07:22:40.807Z,59.03
2018-08-04T07:23:40.815Z,58.76
2018-08-04T07:24:40.819Z,58.18
2018-08-04T07:25:40.823Z,57.50
2018-08-04T07:26:40.832Z,57.89
2018-08-04T07:27:40.841Z,58.18
2018-08-04T07:28:40.840Z,57.31
2018-08-04T07:29:40.841Z,58.76
2018-08-04T07:30:40.845Z,58.31
2018-08-04T07:31:40.886Z,58.47
2018-08-04T07:32:40.852Z,58.18
2018-08-04T07:33:40.858Z,57.50
2018-08-04T07:34:40.863Z,57.21
2018-08-04T07:35:40.868Z,57.69
2018-08-04T07:36:40.875Z,57.31
2018-08-04T07:37:40.880Z,58.11
2018-08-04T07:38:40.887Z,57.62
2018-08-04T07:39:40.892Z,58.21
2018-08-04T07:40:40.899Z,57.33
2018-08-04T07:41:40.908Z,57.23
2018-08-04T07:42:40.905Z,56.85
2018-08-04T07:43:40.912Z,56.26
2018-08-04T07:44:40.915Z,55.88
2018-08-04T07:45:40.921Z,55.41
2018-08-04T07:46:40.928Z,55.71
2018-08-04T07:47:40.988Z,55.68
2018-08-04T07:48:40.946Z,55.49
2018-08-04T07:49:40.941Z,55.98
2018-08-04T07:50:40.948Z,56.95
2018-08-04T07:51:40.959Z,56.43
2018-08-04T07:52:40.957Z,56.46
2018-08-04T07:53:40.965Z,57.11
2018-08-04T07:54:40.966Z,57.40
2018-08-04T07:55:40.976Z,57.60
2018-08-04T07:56:40.977Z,57.31
2018-08-04T07:57:40.984Z,57.23
2018-08-04T07:58:41.004Z,56.75
2018-08-04T07:59:40.999Z,56.87
2018-08-04T08:00:41.004Z,57.29
2018-08-04T08:01:41.019Z,56.12
2018-08-04T08:02:41.013Z,55.93
2018-08-04T08:03:41.025Z,56.05
2018-08-04T08:04:41.028Z,56.05
2018-08-04T08:05:41.034Z,53.91
2018-08-04T08:06:41.042Z,54.11
2018-08-04T08:07:41.048Z,53.62
2018-08-04T08:08:41.056Z,53.42
2018-08-04T08:09:41.060Z,54.11
2018-08-04T08:10:41.170Z,54.01
2018-08-04T08:11:41.078Z,54.40
2018-08-04T08:12:41.093Z,53.62
2018-08-04T08:13:41.092Z,53.62
2018-08-04T08:14:41.106Z,52.77
2018-08-04T08:15:41.104Z,53.06
2018-08-04T08:16:41.109Z,52.31
2018-08-04T08:17:41.122Z,51.53
2018-08-04T08:18:41.125Z,52.12
2018-08-04T08:19:41.134Z,51.63
2018-08-04T08:20:41.142Z,50.95
2018-08-04T08:21:41.148Z,51.43
2018-08-04T08:22:41.155Z,51.04
2018-08-04T08:23:41.226Z,51.53
2018-08-04T08:24:41.170Z,51.56
2018-08-04T08:25:41.181Z,51.17
2018-08-04T08:26:41.222Z,50.95
2018-08-04T08:27:41.199Z,51.73
2018-08-04T08:28:41.234Z,50.95
2018-08-04T08:29:41.219Z,50.85
2018-08-04T08:30:43.210Z,50.36
2018-08-04T08:32:02.256Z,50.09
2018-08-04T08:32:41.296Z,50.38
2018-08-04T08:33:41.266Z,50.19
2018-08-04T08:34:41.305Z,49.44
2018-08-04T08:35:41.360Z,49.73
2018-08-04T08:36:41.279Z,48.95
2018-08-04T08:37:41.288Z,49.17
2018-08-04T08:41:10.855Z,46.75
2018-08-04T08:41:44.055Z,47.24
2018-08-04T08:43:55.651Z,47.14
2018-08-04T08:44:38.729Z,47.53
2018-08-04T08:45:39.779Z,46.29
2018-08-04T08:46:39.253Z,46.78
2018-08-04T08:47:37.849Z,46.39
2018-08-04T08:48:38.098Z,46.19
2018-08-04T08:49:37.918Z,45.51
2018-08-04T08:50:38.151Z,45.70
2018-08-04T08:51:37.776Z,45.61
2018-08-04T08:52:37.852Z,45.21
2018-08-04T08:53:37.885Z,45.61
2018-08-04T08:54:58.836Z,45.90
2018-08-04T08:55:37.805Z,46.09
2018-08-04T08:56:37.813Z,45.70
2018-08-04T08:57:37.830Z,44.74
2018-08-04T08:58:38.586Z,43.57
2018-08-04T08:59:37.848Z,44.28
2018-08-04T09:00:37.864Z,43.01
2018-08-04T09:01:37.867Z,43.40
2018-08-04T09:02:37.876Z,43.30
2018-08-04T09:03:37.896Z,43.69
2018-08-04T09:04:37.900Z,43.71
2018-08-04T09:05:37.918Z,43.13
2018-08-04T09:06:39.515Z,42.15
2018-08-04T09:09:38.684Z,42.15
2018-08-04T09:10:14.684Z,42.36
2018-08-04T09:12:06.077Z,41.46
2018-08-04T09:13:05.968Z,41.96
2018-08-04T09:14:59.741Z,42.13
2018-08-04T09:15:59.737Z,42.32
2018-08-04T09:17:53.872Z,40.39
2018-08-04T09:18:53.430Z,40.58
2018-08-04T09:20:47.126Z,39.45
2018-08-04T09:21:47.088Z,39.15
2018-08-04T09:23:41.602Z,39.37
2018-08-04T09:24:40.898Z,38.78
2018-08-04T09:26:34.869Z,38.29
2018-08-04T09:27:35.308Z,37.90
2018-08-04T09:29:28.363Z,37.88
2018-08-04T09:30:28.325Z,38.28
2018-08-04T09:32:22.304Z,38.37
2018-08-04T09:33:22.360Z,38.59
2018-08-04T09:35:15.866Z,38.88
2018-08-04T09:36:15.724Z,39.27
2018-08-04T09:38:10.158Z,38.31
2018-08-04T09:39:10.021Z,38.02
2018-08-04T09:41:04.235Z,37.04
2018-08-04T09:42:05.076Z,37.25
2018-08-04T09:43:04.370Z,36.86
2018-08-04T09:44:04.270Z,37.23
2018-08-04T09:45:04.309Z,37.52
2018-08-04T09:46:04.933Z,36.96
2018-08-04T09:47:04.286Z,37.25
2018-08-04T09:48:04.291Z,36.66
2018-08-04T09:49:04.325Z,36.66
2018-08-04T09:50:04.345Z,36.18
2018-08-04T09:51:04.337Z,37.56
2018-08-04T09:52:04.375Z,36.29
2018-08-04T09:53:04.357Z,36.68
2018-08-04T09:54:04.400Z,35.41
2018-08-04T09:55:04.391Z,36.11
2018-08-04T09:56:04.398Z,35.80
2018-08-04T09:57:04.412Z,35.21
2018-08-04T09:58:04.419Z,37.25
2018-08-04T09:59:04.433Z,37.45
2018-08-04T10:00:04.455Z,37.92
2018-08-04T10:01:05.438Z,38.04
2018-08-04T10:02:04.520Z,37.76
2018-08-04T10:03:04.503Z,36.99
2018-08-04T10:04:04.499Z,36.82
2018-08-04T10:05:04.561Z,36.34
2018-08-04T10:06:04.532Z,34.99
2018-08-04T10:07:04.554Z,34.63
2018-08-04T10:08:04.551Z,33.65
2018-08-04T10:09:04.609Z,32.79
2018-08-04T10:10:04.600Z,32.59
2018-08-04T10:11:04.606Z,32.42
2018-08-04T10:12:04.635Z,31.56
2018-08-04T10:13:04.635Z,31.37
2018-08-04T10:14:04.663Z,30.98
2018-08-04T10:15:04.654Z,31.09
2018-08-04T10:16:04.652Z,30.21
2018-08-04T10:17:04.676Z,30.69
2018-08-04T10:18:04.676Z,30.58
2018-08-04T10:19:04.694Z,30.55
2018-08-04T10:20:04.720Z,31.04
2018-08-04T10:21:05.458Z,31.34
2018-08-04T10:22:06.455Z,30.73
2018-08-04T10:23:04.746Z,30.98
2018-08-04T10:24:04.772Z,32.04
2018-08-04T10:25:04.816Z,33.41
2018-08-04T10:26:04.880Z,33.41
2018-08-04T10:27:04.828Z,34.18
2018-08-04T10:28:04.843Z,33.10
2018-08-04T10:29:04.833Z,32.90
2018-08-04T10:30:04.849Z,33.48
2018-08-04T10:31:04.933Z,35.14
2018-08-04T10:32:05.022Z,34.87
2018-08-04T10:33:04.882Z,35.08
2018-08-04T10:34:04.914Z,34.53
2018-08-04T10:35:04.912Z,32.38
2018-08-04T10:36:04.923Z,31.87
2018-08-04T10:37:04.962Z,33.17
2018-08-04T10:38:04.965Z,32.17
2018-08-04T10:39:04.998Z,31.79
2018-08-04T10:40:05.012Z,31.79
2018-08-04T10:41:05.010Z,31.70
2018-08-04T10:42:05.007Z,31.72
2018-08-04T10:43:05.042Z,30.73
2018-08-04T10:44:05.088Z,30.83
2018-08-04T10:45:05.053Z,30.62
2018-08-04T10:46:05.061Z,31.21
2018-08-04T10:47:05.079Z,31.80
2018-08-04T10:48:05.091Z,31.49
2018-08-04T10:49:05.121Z,31.88
2018-08-04T10:50:05.157Z,32.77
2018-08-04T10:51:05.157Z,32.77
2018-08-04T10:52:05.164Z,32.59
2018-08-04T10:53:05.177Z,32.01
2018-08-04T10:54:05.206Z,31.52
2018-08-04T10:55:05.190Z,31.52
2018-08-04T10:56:05.211Z,31.62
2018-08-04T10:57:05.251Z,31.63
2018-08-04T10:58:05.223Z,31.06
2018-08-04T10:59:05.259Z,29.78
2018-08-04T11:00:05.252Z,30.37
2018-08-04T11:01:05.268Z,30.76
2018-08-04T11:02:05.280Z,31.17
2018-08-04T11:03:05.298Z,30.00
2018-08-04T11:04:05.313Z,29.60
2018-08-04T11:05:05.322Z,31.07
2018-08-04T11:06:05.344Z,30.88
2018-08-04T11:07:05.351Z,30.76
2018-08-04T11:08:05.400Z,30.83
2018-08-04T11:09:05.381Z,30.91
2018-08-04T11:10:05.400Z,31.70
2018-08-04T11:11:05.412Z,32.29
2018-08-04T11:12:05.422Z,32.20
2018-08-04T11:13:05.452Z,32.39
2018-08-04T11:14:05.454Z,31.82
2018-08-04T11:15:05.474Z,31.14
2018-08-04T11:16:05.477Z,31.14
2018-08-04T11:17:05.502Z,30.45
2018-08-04T11:18:05.576Z,31.04
2018-08-04T11:19:05.517Z,30.86
2018-08-04T11:20:05.536Z,29.89
2018-08-04T11:21:05.559Z,29.99
2018-08-04T11:22:05.566Z,30.58
2018-08-04T11:23:05.604Z,30.88
2018-08-04T11:24:05.615Z,30.76
2018-08-04T11:25:05.617Z,30.57
2018-08-04T11:26:05.627Z,30.27
2018-08-04T11:27:05.665Z,30.75
2018-08-04T11:28:05.691Z,30.96
2018-08-04T11:29:05.659Z,30.86
2018-08-04T11:30:05.701Z,30.98
2018-08-04T11:31:05.700Z,30.78
2018-08-04T11:32:05.736Z,30.66
2018-08-04T11:33:05.718Z,30.94
2018-08-04T11:34:05.728Z,30.94
2018-08-04T11:35:05.788Z,30.85
2018-08-04T11:36:05.794Z,30.55
2018-08-04T11:37:05.800Z,30.85
2018-08-04T11:38:05.813Z,30.73
2018-08-04T11:39:05.807Z,31.01
2018-08-04T11:40:05.810Z,31.88
2018-08-04T11:41:05.832Z,32.17
2018-08-04T11:42:05.856Z,32.18
2018-08-04T11:43:05.858Z,31.01
2018-08-04T11:44:05.869Z,30.71
2018-08-04T11:45:05.955Z,31.69
2018-08-04T11:46:05.902Z,32.28
2018-08-04T11:47:05.916Z,32.97
2018-08-04T11:48:05.941Z,31.60
2018-08-04T11:49:05.940Z,31.62
2018-08-04T11:50:05.977Z,31.13
2018-08-04T11:51:05.971Z,30.75
2018-08-04T11:52:05.992Z,30.94
2018-08-04T11:53:05.991Z,31.04
2018-08-04T11:54:06.011Z,30.73
2018-08-04T11:55:06.018Z,30.93
2018-08-04T11:56:06.033Z,30.63
2018-08-04T11:57:06.044Z,30.83
2018-08-04T11:58:06.134Z,30.83
2018-08-04T11:59:06.072Z,30.73
2018-08-04T12:00:06.089Z,30.72
2018-08-04T12:01:06.104Z,31.01
2018-08-04T12:02:06.145Z,31.41
2018-08-04T12:03:06.126Z,31.31
2018-08-04T12:04:06.156Z,31.80
2018-08-04T12:05:06.160Z,31.70
2018-08-04T12:06:06.177Z,31.31
2018-08-04T12:07:06.192Z,31.60
2018-08-04T12:08:06.228Z,31.01
2018-08-04T12:09:06.209Z,31.01
2018-08-04T12:10:06.221Z,30.73
2018-08-04T12:11:06.318Z,30.93
2018-08-04T12:12:06.250Z,30.73
2018-08-04T12:13:06.263Z,30.63
2018-08-04T12:14:06.275Z,30.82
2018-08-04T12:15:06.288Z,30.83
2018-08-04T12:16:06.305Z,30.83
2018-08-04T12:17:06.324Z,30.04
2018-08-04T12:18:06.397Z,30.63
2018-08-04T12:19:06.343Z,30.82
2018-08-04T12:20:06.369Z,31.31
2018-08-04T12:21:06.378Z,31.21
2018-08-04T12:22:06.379Z,31.21
2018-08-04T12:23:06.396Z,31.51
2018-08-04T12:24:06.409Z,31.21
2018-08-04T12:25:06.419Z,31.04
2018-08-04T12:26:06.434Z,30.07
2018-08-04T12:27:06.451Z,29.68
2018-08-04T12:28:06.462Z,29.76
2018-08-04T12:29:06.477Z,30.65
2018-08-04T12:30:06.490Z,30.55
2018-08-04T12:31:06.501Z,30.85
2018-08-04T12:32:06.518Z,30.54
2018-08-04T12:33:06.526Z,30.63
2018-08-04T12:34:06.544Z,30.72
2018-08-04T12:35:06.559Z,30.82
2018-08-04T12:36:06.579Z,31.20
2018-08-04T12:37:06.582Z,31.10
2018-08-04T12:38:06.599Z,31.79
2018-08-04T12:39:06.608Z,31.79
2018-08-04T12:40:06.622Z,31.79
2018-08-04T12:41:06.635Z,31.59
2018-08-04T12:42:06.647Z,31.69
2018-08-04T12:43:06.695Z,31.13
2018-08-04T12:44:06.679Z,30.16
2018-08-04T12:45:06.688Z,29.88
2018-08-04T12:46:06.710Z,29.76
2018-08-04T12:47:06.715Z,29.46
2018-08-04T12:48:06.727Z,29.83
2018-08-04T12:49:06.757Z,30.52
2018-08-04T12:50:06.777Z,29.55
2018-08-04T12:51:06.782Z,29.55
2018-08-04T12:52:06.803Z,29.25
2018-08-04T12:53:06.820Z,29.35
2018-08-04T12:54:06.816Z,29.83
2018-08-04T12:55:06.837Z,30.22
2018-08-04T12:56:06.865Z,30.03
2018-08-04T12:57:06.860Z,30.41
2018-08-04T12:58:06.871Z,30.71
2018-08-04T12:59:06.905Z,30.60
2018-08-04T13:00:06.890Z,30.80
2018-08-04T13:01:06.915Z,30.91
2018-08-04T13:02:06.902Z,30.54
2018-08-04T13:03:06.924Z,29.09
2018-08-04T13:04:06.927Z,28.51
2018-08-04T13:05:06.950Z,28.62
2018-08-04T13:06:06.967Z,27.93
2018-08-04T13:07:06.968Z,28.62
2018-08-04T13:08:07.004Z,28.41